createdAt,value
2019-05-25T00:04:25.528Z,1005.48
2019-05-25T00:09:25.547Z,1005.50
2019-05-25T00:14:24.659Z,1005.58
2019-05-25T00:19:24.565Z,1005.55
2019-05-25T00:24:24.582Z,1005.57
2019-05-25T00:29:24.584Z,1005.59
2019-05-25T00:34:24.505Z,1005.53
2019-05-25T00:39:25.523Z,1005.53
2019-05-25T00:44:25.534Z,1005.53
2019-05-25T00:49:24.516Z,1005.64
2019-05-25T00:54:27.997Z,1005.67
2019-05-25T00:59:24.509Z,1005.65
2019-05-25T01:04:24.530Z,1005.58
2019-05-25T01:09:25.481Z,1005.62
2019-05-25T01:14:25.536Z,1005.56
2019-05-25T01:19:25.568Z,1005.56
2019-05-25T01:24:24.563Z,1005.50
2019-05-25T01:29:24.577Z,1005.57
2019-05-25T01:34:24.538Z,1005.51
2019-05-25T01:39:24.523Z,1005.55
2019-05-25T01:44:24.532Z,1005.55
2019-05-25T01:49:24.464Z,1005.57
2019-05-25T01:54:23.706Z,1005.62
2019-05-25T01:59:22.958Z,1005.56
2019-05-25T02:04:22.513Z,1005.73
2019-05-25T02:09:22.631Z,1005.77
2019-05-25T02:14:23.500Z,1005.74
2019-05-25T02:19:22.532Z,1005.76
2019-05-25T02:24:22.555Z,1005.78
2019-05-25T02:29:22.486Z,1005.87
2019-05-25T02:34:23.555Z,1005.86
2019-05-25T02:39:22.525Z,1005.88
2019-05-25T02:44:23.638Z,1005.99
2019-05-25T02:49:22.539Z,1006.07
2019-05-25T02:54:22.638Z,1006.04
2019-05-25T02:59:21.579Z,1006.04
2019-05-25T03:04:20.545Z,1006.04
2019-05-25T03:09:20.557Z,1006.06
2019-05-25T03:14:20.542Z,1006.14
2019-05-25T03:19:20.528Z,1006.17
2019-05-25T03:24:20.533Z,1006.15
2019-05-25T03:29:20.518Z,1006.11
2019-05-25T03:34:20.540Z,1006.11
2019-05-25T03:39:20.553Z,1006.17
2019-05-25T03:44:21.560Z,1006.24
2019-05-25T03:49:21.543Z,1006.27
2019-05-25T03:54:20.519Z,1006.29
2019-05-25T03:59:20.550Z,1006.40
2019-05-25T04:04:20.545Z,1006.38
2019-05-25T04:09:20.530Z,1006.44
2019-05-25T04:14:21.666Z,1006.39
2019-05-25T04:19:21.583Z,1006.46
2019-05-25T04:24:20.827Z,1006.56
2019-05-25T04:29:19.665Z,1006.60
2019-05-25T04:34:19.584Z,1006.59
2019-05-25T04:39:19.531Z,1006.71
2019-05-25T04:44:19.488Z,1006.71
2019-05-25T04:49:20.557Z,1006.80
2019-05-25T04:54:20.553Z,1006.94
2019-05-25T04:59:19.499Z,1006.90
2019-05-25T05:04:20.536Z,1006.88
2019-05-25T05:09:19.768Z,1006.89
2019-05-25T05:14:20.530Z,1006.84
2019-05-25T05:19:20.574Z,1006.92
2019-05-25T05:29:21.551Z,1006.95
2019-05-25T05:39:20.538Z,1006.97
2019-05-25T05:44:20.555Z,1007.05
2019-05-25T05:49:19.954Z,1007.00
2019-05-25T05:54:20.556Z,1007.03
2019-05-25T05:59:20.518Z,1007.01
2019-05-25T06:04:19.512Z,1007.07
2019-05-25T06:09:19.503Z,1007.02
2019-05-25T06:14:19.519Z,1007.08
2019-05-25T06:19:19.519Z,1007.08
2019-05-25T06:24:19.595Z,1007.19
2019-05-25T06:29:18.942Z,1007.19
2019-05-25T06:34:18.552Z,1007.22
2019-05-25T06:44:19.598Z,1007.38
2019-05-25T06:49:19.537Z,1007.52
2019-05-25T06:54:19.520Z,1007.48
2019-05-25T06:59:18.970Z,1007.48
2019-05-25T07:04:18.541Z,1007.54
2019-05-25T07:09:19.525Z,1007.63
2019-05-25T07:14:19.519Z,1007.50
2019-05-25T07:19:20.549Z,1007.53
2019-05-25T07:24:17.823Z,1007.52
2019-05-25T07:29:18.590Z,1007.51
2019-05-25T07:34:18.556Z,1007.50
2019-05-25T07:39:18.529Z,1007.44
2019-05-25T07:44:17.539Z,1007.41
2019-05-25T07:49:17.534Z,1007.48
2019-05-25T07:54:18.639Z,1007.33
2019-05-25T07:59:17.548Z,1007.35
2019-05-25T08:04:17.537Z,1007.33
2019-05-25T08:09:17.768Z,1007.36
2019-05-25T08:14:17.773Z,1007.36
2019-05-25T08:19:17.773Z,1007.41
2019-05-25T08:24:17.716Z,1007.46
2019-05-25T08:29:18.710Z,1007.44
2019-05-25T08:34:18.809Z,1007.54
2019-05-25T08:39:18.817Z,1007.54
2019-05-25T08:44:18.974Z,1007.48
2019-05-25T08:49:18.750Z,1007.49
2019-05-25T08:54:17.830Z,1007.38
2019-05-25T08:59:17.741Z,1007.47
2019-05-25T09:04:18.809Z,1007.48
2019-05-25T09:09:18.765Z,1007.52
2019-05-25T09:19:18.758Z,1007.47
2019-05-25T09:24:17.728Z,1007.45
2019-05-25T09:29:16.947Z,1007.43
2019-05-25T09:34:16.729Z,1007.43
2019-05-25T09:39:15.746Z,1007.41
2019-05-25T09:44:15.746Z,1007.47
2019-05-25T09:49:15.762Z,1007.45
2019-05-25T09:54:14.728Z,1007.36
2019-05-25T09:59:20.131Z,1007.29
2019-05-25T10:04:13.722Z,1007.34
2019-05-25T10:09:13.736Z,1007.43
2019-05-25T10:14:14.769Z,1007.43
2019-05-25T10:19:15.784Z,1007.42
2019-05-25T10:24:15.765Z,1007.43
2019-05-25T10:29:15.746Z,1007.45
2019-05-25T10:34:15.735Z,1007.39
2019-05-25T10:39:15.142Z,1007.38
2019-05-25T10:44:14.728Z,1007.44
2019-05-25T10:49:14.740Z,1007.34
2019-05-25T10:54:13.800Z,1007.33
2019-05-25T11:04:13.774Z,1007.17
2019-05-25T11:09:12.812Z,1007.17
2019-05-25T11:14:12.048Z,1007.24
2019-05-25T11:19:11.720Z,1007.22
2019-05-25T11:24:12.733Z,1007.17
2019-05-25T11:29:12.736Z,1007.19
2019-05-25T11:34:12.812Z,1007.20
2019-05-25T11:39:12.695Z,1007.13
2019-05-25T11:44:12.724Z,1007.18
2019-05-25T11:49:22.067Z,1007.17
2019-05-25T11:54:12.664Z,1007.15
2019-05-25T11:59:12.686Z,1007.08
2019-05-25T12:04:12.769Z,1007.03
2019-05-25T12:09:12.676Z,1006.98
2019-05-25T12:14:12.700Z,1006.99
2019-05-25T12:19:14.865Z,1006.96
2019-05-25T12:24:12.718Z,1006.84
2019-05-25T12:29:12.676Z,1006.87
2019-05-25T12:34:11.738Z,1006.96
2019-05-25T12:39:11.676Z,1006.89
2019-05-25T12:44:10.734Z,1006.86
2019-05-25T12:49:09.843Z,1006.88
2019-05-25T12:54:08.802Z,1006.85
2019-05-25T12:59:08.706Z,1006.79
2019-05-25T13:04:08.749Z,1006.70
2019-05-25T13:09:08.663Z,1006.71
2019-05-25T13:14:14.623Z,1006.68
2019-05-25T13:19:07.652Z,1006.71
2019-05-25T13:24:07.724Z,1006.66
2019-05-25T13:29:08.773Z,1006.63
2019-05-25T13:34:08.710Z,1006.61
2019-05-25T13:39:08.681Z,1006.65
2019-05-25T13:44:07.806Z,1006.57
2019-05-25T13:49:08.687Z,1006.51
2019-05-25T13:54:08.673Z,1006.57
2019-05-25T13:59:09.706Z,1006.49
2019-05-25T14:04:09.734Z,1006.46
2019-05-25T14:09:09.692Z,1006.40
2019-05-25T14:14:09.680Z,1006.42
2019-05-25T14:19:09.722Z,1006.42
2019-05-25T14:24:08.680Z,1006.35
2019-05-25T14:29:09.650Z,1006.28
2019-05-25T14:34:09.673Z,1006.26
2019-05-25T14:39:09.703Z,1006.25
2019-05-25T14:44:09.658Z,1006.18
2019-05-25T14:49:09.693Z,1006.21
2019-05-25T14:54:09.135Z,1006.18
2019-05-25T14:59:08.671Z,1006.06
2019-05-25T15:04:08.612Z,1006.14
2019-05-25T15:09:08.633Z,1006.13
2019-05-25T15:14:08.635Z,1006.10
2019-05-25T15:19:07.658Z,1006.07
2019-05-25T15:24:06.901Z,1006.01
2019-05-25T15:29:06.665Z,1006.07
2019-05-25T15:34:05.684Z,1006.00
2019-05-25T15:39:05.633Z,1005.94
2019-05-25T15:49:04.594Z,1006.04
2019-05-25T15:54:03.609Z,1005.96
2019-05-25T15:59:02.903Z,1006.00
2019-05-25T16:04:01.981Z,1006.03
2019-05-25T16:09:01.735Z,1005.94
2019-05-25T16:14:00.608Z,1006.01
2019-05-25T16:19:01.628Z,1005.97
2019-05-25T16:24:02.649Z,1005.98
2019-05-25T16:29:01.682Z,1005.88
2019-05-25T16:34:00.983Z,1005.89
2019-05-25T16:39:00.651Z,1005.95
2019-05-25T16:44:00.632Z,1005.78
2019-05-25T16:49:00.637Z,1005.75
2019-05-25T16:54:00.584Z,1005.75
2019-05-25T16:59:00.630Z,1005.76
2019-05-25T17:04:00.687Z,1005.69
2019-05-25T17:08:59.602Z,1005.69
2019-05-25T17:13:59.582Z,1005.67
2019-05-25T17:18:58.663Z,1005.80
2019-05-25T17:23:57.684Z,1005.70
2019-05-25T17:28:57.595Z,1005.72
2019-05-25T17:33:57.010Z,1005.69
2019-05-25T17:38:57.643Z,1005.73
2019-05-25T17:43:58.605Z,1005.82
2019-05-25T17:48:58.614Z,1005.90
2019-05-25T17:53:58.015Z,1005.83
2019-05-25T17:58:57.006Z,1005.93
2019-05-25T18:04:06.607Z,1005.92
2019-05-25T18:08:57.618Z,1006.05
2019-05-25T18:13:57.605Z,1006.05
2019-05-25T18:18:56.566Z,1006.06
2019-05-25T18:23:55.631Z,1006.13
2019-05-25T18:28:54.575Z,1006.08
2019-05-25T18:33:53.817Z,1006.13
2019-05-25T18:38:54.622Z,1006.04
2019-05-25T18:43:53.612Z,1006.09
2019-05-25T18:48:54.688Z,1006.03
2019-05-25T18:53:54.573Z,1006.03
2019-05-25T18:58:54.579Z,1006.08
2019-05-25T19:03:54.600Z,1005.97
2019-05-25T19:08:54.588Z,1006.01
2019-05-25T19:13:54.596Z,1006.05
2019-05-25T19:18:53.910Z,1006.05
2019-05-25T19:23:52.881Z,1006.10
2019-05-25T19:28:51.917Z,1006.21
2019-05-25T19:33:52.540Z,1006.23
2019-05-25T19:38:51.910Z,1006.26
2019-05-25T19:43:52.602Z,1006.22
2019-05-25T19:48:53.557Z,1006.31
2019-05-25T19:53:53.544Z,1006.24
2019-05-25T19:58:54.573Z,1006.27
2019-05-25T20:03:57.299Z,1006.45
2019-05-25T20:08:54.653Z,1006.43
2019-05-25T20:13:54.560Z,1006.44
2019-05-25T20:18:54.620Z,1006.50
2019-05-25T20:23:53.575Z,1006.51
2019-05-25T20:28:53.550Z,1006.58
2019-05-25T20:33:53.532Z,1006.58
2019-05-25T20:38:52.805Z,1006.64
2019-05-25T20:43:51.625Z,1006.67
2019-05-25T20:48:50.884Z,1006.63
2019-05-25T20:53:50.649Z,1006.62
2019-05-25T20:58:49.590Z,1006.73
2019-05-25T21:03:50.543Z,1006.75
2019-05-25T21:08:50.561Z,1006.82
2019-05-25T21:13:49.624Z,1006.78
2019-05-25T21:18:50.574Z,1006.88
2019-05-25T21:23:50.602Z,1006.75
2019-05-25T21:28:50.574Z,1006.78
2019-05-25T21:33:49.615Z,1006.77
2019-05-25T21:38:49.604Z,1006.76
2019-05-25T21:43:49.511Z,1006.69
2019-05-25T21:48:49.578Z,1006.72
2019-05-25T21:53:49.538Z,1006.81
2019-05-25T21:58:49.519Z,1006.82
2019-05-25T22:03:48.505Z,1006.71
2019-05-25T22:08:47.570Z,1006.73
2019-05-25T22:13:48.569Z,1006.70
2019-05-25T22:18:47.713Z,1006.59
2019-05-25T22:23:48.586Z,1006.49
2019-05-25T22:28:47.962Z,1006.49
2019-05-25T22:33:48.576Z,1006.36
2019-05-25T22:38:47.508Z,1006.28
2019-05-25T22:43:48.532Z,1006.27
2019-05-25T22:48:47.723Z,1006.27
2019-05-25T22:53:46.528Z,1006.34
2019-05-25T22:58:46.575Z,1006.28
2019-05-25T23:03:46.565Z,1006.25
2019-05-25T23:08:47.601Z,1006.13
2019-05-25T23:13:46.808Z,1006.14
2019-05-25T23:18:45.970Z,1006.13
2019-05-25T23:23:45.557Z,1006.12
2019-05-25T23:28:45.545Z,1006.09
2019-05-25T23:33:46.586Z,1006.00
2019-05-25T23:38:45.559Z,1006.00
2019-05-25T23:43:45.594Z,1006.05
2019-05-25T23:48:44.543Z,1006.03
2019-05-25T23:53:44.683Z,1005.96
2019-05-25T23:58:43.648Z,1006.04
